createdAt,value
2018-06-18T00:03:18.361Z,91.70
2018-06-18T00:07:21.194Z,91.70
2018-06-18T00:11:24.088Z,91.50
2018-06-18T00:15:26.901Z,91.80
2018-06-18T00:19:29.728Z,91.30
2018-06-18T00:23:32.556Z,91.70
2018-06-18T00:27:35.427Z,91.10
2018-06-18T00:31:38.390Z,92.00
2018-06-18T00:35:41.311Z,92.40
2018-06-18T00:39:44.144Z,92.40
2018-06-18T00:43:46.973Z,92.90
2018-06-18T00:51:52.482Z,91.90
2018-06-18T00:56:06.842Z,92.50
2018-06-18T01:00:09.605Z,91.90
2018-06-18T01:04:12.427Z,91.50
2018-06-18T01:08:15.283Z,91.50
2018-06-18T01:12:18.119Z,91.50
2018-06-18T01:16:20.952Z,92.20
2018-06-18T01:20:23.919Z,91.40
2018-06-18T01:24:33.062Z,90.70
2018-06-18T01:28:35.855Z,90.80
2018-06-18T01:32:38.805Z,92.00
2018-06-18T01:36:41.672Z,92.20
2018-06-18T01:40:44.590Z,93.60
2018-06-18T01:44:47.493Z,94.80
2018-06-18T01:48:50.312Z,94.00
2018-06-18T01:52:53.194Z,94.40
2018-06-18T01:56:56.053Z,94.50
2018-06-18T02:00:58.854Z,94.70
2018-06-18T02:05:01.749Z,94.80
2018-06-18T02:09:08.279Z,95.60
2018-06-18T02:13:11.161Z,95.00
2018-06-18T02:17:13.974Z,95.20
2018-06-18T02:21:16.788Z,95.60
2018-06-18T02:25:19.609Z,95.60
2018-06-18T02:29:28.091Z,96.10
2018-06-18T02:33:36.540Z,96.20
2018-06-18T02:37:44.975Z,96.10
2018-06-18T02:41:47.812Z,96.20
2018-06-18T02:45:50.833Z,96.10
2018-06-18T02:49:54.456Z,95.50
2018-06-18T02:53:57.437Z,95.00
2018-06-18T02:58:00.591Z,94.40
2018-06-18T03:02:03.649Z,94.60
2018-06-18T03:06:06.676Z,94.40
2018-06-18T03:10:09.718Z,94.40
2018-06-18T03:14:12.697Z,94.60
2018-06-18T03:18:21.192Z,95.00
2018-06-18T03:22:29.585Z,95.50
2018-06-18T03:26:37.904Z,95.80
2018-06-18T03:30:40.754Z,95.70
2018-06-18T03:34:43.653Z,95.50
2018-06-18T03:38:46.459Z,95.80
2018-06-18T03:42:49.371Z,96.20
2018-06-18T03:46:52.729Z,95.90
2018-06-18T03:50:55.769Z,95.10
2018-06-18T03:55:01.235Z,94.70
2018-06-18T03:59:04.172Z,95.30
2018-06-18T04:03:12.542Z,96.10
2018-06-18T04:07:22.705Z,96.00
2018-06-18T04:11:31.238Z,95.80
2018-06-18T04:15:34.085Z,95.30
2018-06-18T04:19:36.886Z,95.10
2018-06-18T04:23:39.857Z,95.50
2018-06-18T04:27:42.762Z,96.20
2018-06-18T04:31:45.592Z,96.60
2018-06-18T04:35:48.365Z,95.80
2018-06-18T04:39:51.224Z,96.00
2018-06-18T04:43:59.734Z,95.90
2018-06-18T04:48:08.311Z,95.80
2018-06-18T04:52:14.001Z,96.00
2018-06-18T04:56:17.350Z,95.50
2018-06-18T05:01:27.545Z,95.50
2018-06-18T05:05:30.421Z,94.90
2018-06-18T05:09:40.962Z,94.80
2018-06-18T05:13:43.791Z,94.50
2018-06-18T05:17:46.595Z,94.80
2018-06-18T05:21:49.397Z,94.10
2018-06-18T05:25:57.758Z,94.10
2018-06-18T05:30:08.805Z,94.20
2018-06-18T05:34:13.369Z,94.50
2018-06-18T05:38:25.784Z,94.30
2018-06-18T05:42:28.630Z,93.60
2018-06-18T05:46:31.528Z,94.00
2018-06-18T05:50:34.386Z,93.80
2018-06-18T05:54:37.312Z,93.90
2018-06-18T05:58:40.093Z,94.00
2018-06-18T06:02:42.956Z,93.60
2018-06-18T06:06:46.059Z,93.10
2018-06-18T06:10:48.942Z,93.60
2018-06-18T06:14:52.313Z,94.20
2018-06-18T06:18:56.033Z,94.10
2018-06-18T06:22:59.078Z,94.50
2018-06-18T06:27:08.788Z,94.90
2018-06-18T06:31:11.675Z,95.50
2018-06-18T06:35:26.250Z,95.80
2018-06-18T06:39:29.047Z,95.70
2018-06-18T06:43:31.869Z,95.80
2018-06-18T06:47:34.759Z,95.20
2018-06-18T06:51:37.552Z,95.00
2018-06-18T06:55:40.327Z,95.60
2018-06-18T06:59:43.160Z,94.70
2018-06-18T07:03:45.994Z,94.80
2018-06-18T07:07:48.875Z,94.40
2018-06-18T07:11:51.706Z,94.90
2018-06-18T07:15:54.547Z,94.50
2018-06-18T07:19:57.415Z,94.40
2018-06-18T07:24:00.266Z,94.50
2018-06-18T07:28:03.172Z,94.30
2018-06-18T07:32:06.003Z,94.20
2018-06-18T07:36:08.864Z,94.10
2018-06-18T07:40:11.719Z,93.40
2018-06-18T07:44:14.599Z,93.10
2018-06-18T07:48:17.509Z,92.80
2018-06-18T07:52:20.628Z,92.60
2018-06-18T07:56:23.538Z,92.70
2018-06-18T08:04:29.384Z,92.90
2018-06-18T08:08:32.263Z,93.20
2018-06-18T08:12:40.745Z,93.20
2018-06-18T08:16:44.971Z,93.00
2018-06-18T08:20:50.793Z,92.90
2018-06-18T08:24:54.140Z,92.60
2018-06-18T08:28:57.250Z,92.90
2018-06-18T08:33:00.302Z,92.60
2018-06-18T08:41:06.091Z,92.50
2018-06-18T08:45:09.795Z,92.20
2018-06-18T08:49:12.619Z,92.10
2018-06-18T08:53:21.146Z,91.20
2018-06-18T08:57:29.545Z,91.00
2018-06-18T09:01:38.074Z,90.50
2018-06-18T09:05:46.298Z,90.40
2018-06-18T09:09:49.203Z,90.20
2018-06-18T09:13:53.238Z,90.60
2018-06-18T09:17:56.046Z,88.40
2018-06-18T09:21:58.896Z,86.00
2018-06-18T09:26:01.795Z,88.20
2018-06-18T09:30:11.120Z,88.00
2018-06-18T09:34:13.981Z,88.90
2018-06-18T09:38:16.866Z,88.80
2018-06-18T09:42:19.744Z,89.00
2018-06-18T09:46:22.533Z,89.40
2018-06-18T09:50:31.067Z,88.50
2018-06-18T09:54:39.472Z,89.30
2018-06-18T09:58:47.819Z,89.40
2018-06-18T10:02:50.653Z,89.60
2018-06-18T10:06:53.491Z,90.10
2018-06-18T10:10:56.322Z,90.20
2018-06-18T10:14:59.187Z,89.40
2018-06-18T10:19:01.996Z,89.20
2018-06-18T10:23:04.931Z,89.80
2018-06-18T10:27:07.884Z,90.20
2018-06-18T10:31:10.786Z,90.90
2018-06-18T10:35:19.222Z,91.10
2018-06-18T10:39:27.847Z,90.60
2018-06-18T10:43:35.056Z,90.70
2018-06-18T10:47:37.897Z,90.00
2018-06-18T10:51:47.479Z,88.60
2018-06-18T10:55:50.912Z,88.40
2018-06-18T10:59:54.018Z,88.20
2018-06-18T11:03:57.301Z,88.60
2018-06-18T11:08:01.621Z,89.10
2018-06-18T11:12:04.542Z,89.60
2018-06-18T11:16:07.757Z,90.00
2018-06-18T11:20:16.172Z,90.20
2018-06-18T11:24:24.700Z,89.60
2018-06-18T11:28:27.613Z,88.90
2018-06-18T11:32:30.509Z,89.80
2018-06-18T11:36:33.525Z,90.20
2018-06-18T11:40:36.397Z,90.00
2018-06-18T11:44:39.291Z,88.10
2018-06-18T11:48:42.185Z,88.90
2018-06-18T11:52:45.081Z,88.40
2018-06-18T11:56:47.929Z,88.90
2018-06-18T12:00:56.449Z,89.20
2018-06-18T12:05:04.889Z,89.50
2018-06-18T12:09:13.866Z,90.00
2018-06-18T12:13:16.928Z,90.20
2018-06-18T12:17:19.789Z,90.90
2018-06-18T12:21:22.551Z,90.20
2018-06-18T12:25:25.331Z,90.30
2018-06-18T12:29:28.232Z,90.60
2018-06-18T12:33:31.126Z,90.90
2018-06-18T12:37:33.964Z,90.30
2018-06-18T12:41:38.530Z,90.00
2018-06-18T12:45:47.124Z,91.30
2018-06-18T12:49:55.482Z,92.10
2018-06-18T12:54:03.790Z,93.00
2018-06-18T12:58:06.650Z,92.50
2018-06-18T13:02:14.007Z,91.90
2018-06-18T13:06:16.836Z,92.10
2018-06-18T13:10:19.841Z,92.30
2018-06-18T13:14:22.669Z,92.70
2018-06-18T13:18:25.588Z,92.70
2018-06-18T13:26:31.122Z,92.50
2018-06-18T13:30:34.004Z,92.70
2018-06-18T13:34:36.887Z,92.90
2018-06-18T13:38:45.444Z,93.00
2018-06-18T13:42:53.813Z,93.60
2018-06-18T13:47:02.243Z,95.40
2018-06-18T13:51:05.160Z,97.10
2018-06-18T13:55:08.053Z,96.60
2018-06-18T13:59:10.940Z,97.20
2018-06-18T14:03:13.779Z,97.20
2018-06-18T14:19:37.492Z,96.90
2018-06-18T14:23:40.393Z,97.00
2018-06-18T14:27:43.309Z,96.40
2018-06-18T14:31:51.616Z,95.80
2018-06-18T14:36:00.084Z,95.80
2018-06-18T14:40:10.208Z,95.60
2018-06-18T14:44:13.908Z,95.90
2018-06-18T14:48:16.812Z,95.80
2018-06-18T14:52:20.219Z,95.80
2018-06-18T14:56:26.733Z,95.80
2018-06-18T15:00:32.377Z,96.40
2018-06-18T15:04:35.245Z,96.30
2018-06-18T15:08:38.269Z,96.50
2018-06-18T15:12:49.342Z,97.60
2018-06-18T15:16:52.230Z,98.10
2018-06-18T15:20:57.953Z,98.60
2018-06-18T15:25:05.644Z,98.60
2018-06-18T15:29:08.704Z,99.00
2018-06-18T15:33:11.701Z,98.90
2018-06-18T15:37:14.880Z,98.60
2018-06-18T15:41:19.536Z,98.00
2018-06-18T15:45:22.980Z,97.90
2018-06-18T15:49:26.087Z,97.50
2018-06-18T15:53:29.039Z,98.10
2018-06-18T15:57:32.163Z,97.40
2018-06-18T16:01:35.296Z,97.80
2018-06-18T16:05:38.309Z,97.90
2018-06-18T16:09:41.457Z,98.10
2018-06-18T16:13:45.333Z,98.10
2018-06-18T16:17:48.556Z,97.60
2018-06-18T16:21:51.492Z,97.60
2018-06-18T16:25:54.540Z,97.60
2018-06-18T16:29:57.859Z,97.30
2018-06-18T16:34:01.491Z,98.60
2018-06-18T16:38:04.596Z,98.90
2018-06-18T16:42:07.700Z,99.90
2018-06-18T16:46:10.628Z,99.40
2018-06-18T16:50:13.791Z,99.10
2018-06-18T16:54:16.758Z,98.90
2018-06-18T16:58:19.619Z,99.00
2018-06-18T17:02:22.572Z,98.20
2018-06-18T17:06:25.536Z,96.80
2018-06-18T17:10:28.437Z,97.40
2018-06-18T17:14:31.415Z,97.20
2018-06-18T17:18:34.415Z,97.30
2018-06-18T17:22:37.316Z,96.90
2018-06-18T17:26:40.971Z,97.10
2018-06-18T17:30:44.974Z,96.00
2018-06-18T17:34:48.792Z,96.00
2018-06-18T17:38:51.732Z,95.90
2018-06-18T17:42:54.591Z,95.90
2018-06-18T17:46:57.568Z,95.70
2018-06-18T17:51:00.415Z,95.40
2018-06-18T17:55:03.261Z,95.40
2018-06-18T17:59:06.556Z,95.30
2018-06-18T18:03:10.541Z,95.30
2018-06-18T18:07:14.645Z,95.10
2018-06-18T18:11:17.827Z,95.10
2018-06-18T18:15:21.448Z,95.30
2018-06-18T18:19:25.654Z,95.60
2018-06-18T18:23:28.962Z,95.30
2018-06-18T18:27:32.527Z,95.30
2018-06-18T18:31:35.877Z,95.30
2018-06-18T18:35:39.221Z,95.30
2018-06-18T18:39:42.381Z,95.50
2018-06-18T18:43:49.064Z,95.60
2018-06-18T18:47:51.885Z,95.80
2018-06-18T18:51:54.967Z,95.80
2018-06-18T18:56:09.071Z,95.40
2018-06-18T19:00:11.841Z,95.70
2018-06-18T19:04:18.308Z,95.80
2018-06-18T19:08:24.975Z,95.70
2018-06-18T19:12:28.927Z,95.60
2018-06-18T19:16:31.822Z,95.80
2018-06-18T19:20:45.561Z,95.80
2018-06-18T19:24:48.416Z,96.00
2018-06-18T19:28:51.848Z,96.00
2018-06-18T19:32:57.388Z,96.00
2018-06-18T19:37:00.350Z,96.50
2018-06-18T19:41:03.318Z,96.60
2018-06-18T19:45:08.532Z,96.90
2018-06-18T19:49:12.842Z,97.10
2018-06-18T19:53:15.705Z,97.40
2018-06-18T19:57:18.669Z,97.20
2018-06-18T20:01:21.613Z,97.20
2018-06-18T20:05:24.576Z,97.30
2018-06-18T20:09:27.345Z,97.20
2018-06-18T20:13:30.203Z,97.20
2018-06-18T20:21:35.845Z,97.30
2018-06-18T20:25:42.890Z,97.50
2018-06-18T20:29:45.847Z,97.60
2018-06-18T20:33:56.467Z,97.90
2018-06-18T20:37:59.439Z,97.70
2018-06-18T20:42:02.429Z,98.10
2018-06-18T20:46:06.686Z,97.80
2018-06-18T20:50:10.561Z,97.30
2018-06-18T20:54:14.273Z,97.10
2018-06-18T20:58:17.758Z,97.20
2018-06-18T21:02:20.734Z,96.90
2018-06-18T21:06:23.600Z,96.90
2018-06-18T21:10:26.446Z,97.00
2018-06-18T21:14:29.265Z,96.90
2018-06-18T21:18:32.190Z,96.70
2018-06-18T21:22:35.134Z,96.90
2018-06-18T21:26:38.034Z,96.80
2018-06-18T21:30:40.912Z,96.60
2018-06-18T21:34:43.741Z,96.50
2018-06-18T21:38:46.662Z,96.70
2018-06-18T21:42:49.531Z,96.20
2018-06-18T21:46:52.384Z,95.50
2018-06-18T21:50:55.209Z,95.50
2018-06-18T21:54:58.109Z,94.80
2018-06-18T21:59:01.903Z,94.70
2018-06-18T22:03:05.162Z,94.50
2018-06-18T22:07:08.050Z,93.90
2018-06-18T22:11:11.074Z,94.60
2018-06-18T22:15:14.012Z,94.50
2018-06-18T22:19:16.941Z,93.60
2018-06-18T22:23:19.826Z,93.80
2018-06-18T22:27:22.826Z,93.40
2018-06-18T22:31:25.982Z,94.00
2018-06-18T22:35:29.016Z,93.50
2018-06-18T22:39:31.984Z,94.00
2018-06-18T22:43:34.976Z,93.80
2018-06-18T22:47:37.777Z,93.70
2018-06-18T22:51:40.738Z,93.50
2018-06-18T22:55:43.708Z,93.90
2018-06-18T22:59:47.017Z,94.10
2018-06-18T23:03:49.945Z,93.70
2018-06-18T23:07:53.058Z,94.30
2018-06-18T23:11:55.967Z,94.40
2018-06-18T23:15:59.401Z,94.40
2018-06-18T23:20:02.338Z,94.20
2018-06-18T23:24:05.243Z,94.60
2018-06-18T23:28:08.200Z,94.90
2018-06-18T23:32:11.201Z,95.20
2018-06-18T23:36:14.137Z,96.00
2018-06-18T23:40:17.123Z,95.60
2018-06-18T23:44:20.167Z,95.50
2018-06-18T23:48:23.031Z,96.10
2018-06-18T23:52:25.866Z,96.00
2018-06-18T23:56:28.812Z,96.30
